Terminal Aerodrome Forecast
Issued by NWS

Home | Current Version | Previous Version | Text Only | Print | Product List | Glossary On
Versions: 1 2 3 4 5 6 7 8 9 10 11 12 13 14 15 16 17 18
000
FTUS43 KLSX 241700
TAFCPS
TAF
KCPS 241720Z 2418/2518 28010KT 4SM -RA BR OVC008
      TEMPO 2418/2420 6SM OVC012
     FM250000 27008KT P6SM OVC014
     FM250600 24005KT P6SM OVC022
     FM251300 18006KT P6SM SCT250=

USA.gov is the U.S. government's official web portal to all federal, state and local government web resources and services.